createdAt,value
2022-10-30T00:01:46.721Z,100718.44
2022-10-30T00:06:49.504Z,100709.59
2022-10-30T00:11:53.536Z,100697.97
2022-10-30T00:16:56.340Z,100690.28
2022-10-30T00:27:02.064Z,100679.16
2022-10-30T00:32:04.745Z,100687.00
2022-10-30T00:37:07.393Z,100683.59
2022-10-30T00:42:13.245Z,100676.13
2022-10-30T00:47:19.695Z,100678.59
2022-10-30T00:52:22.622Z,100681.69
2022-10-30T00:57:26.644Z,100671.03
2022-10-30T01:02:29.431Z,100660.72
2022-10-30T01:07:32.208Z,100659.28
2022-10-30T01:12:36.189Z,100654.00
2022-10-30T01:17:47.229Z,100647.16
2022-10-30T01:22:55.747Z,100643.75
2022-10-30T01:28:03.483Z,100637.63
2022-10-30T01:33:12.788Z,100633.34
2022-10-30T01:38:17.776Z,100631.75
2022-10-30T01:43:21.929Z,100632.75
2022-10-30T01:48:36.695Z,100622.22
2022-10-30T01:53:45.507Z,100620.63
2022-10-30T01:58:52.613Z,100628.81
2022-10-30T02:03:56.755Z,100621.00
2022-10-30T02:08:59.525Z,100622.13
2022-10-30T02:14:05.419Z,100621.38
2022-10-30T02:19:08.183Z,100612.56
2022-10-30T02:24:12.163Z,100609.28
2022-10-30T02:29:14.907Z,100614.91
2022-10-30T02:34:17.887Z,100602.41
2022-10-30T02:39:22.248Z,100614.41
2022-10-30T02:44:24.933Z,100607.59
2022-10-30T02:49:27.641Z,100608.44
2022-10-30T02:54:31.678Z,100615.03
2022-10-30T02:59:34.506Z,100617.97
2022-10-30T03:04:37.210Z,100617.25
2022-10-30T03:09:41.215Z,100616.47
2022-10-30T03:14:44.070Z,100608.53
2022-10-30T03:19:47.044Z,100605.00
2022-10-30T03:24:51.572Z,100605.97
2022-10-30T03:29:54.462Z,100607.22
2022-10-30T03:34:57.234Z,100606.44
2022-10-30T03:40:01.239Z,100606.44
2022-10-30T03:45:03.904Z,100610.22
2022-10-30T03:50:07.692Z,100596.91
2022-10-30T03:55:11.813Z,100598.84
2022-10-30T04:00:17.697Z,100595.31
2022-10-30T04:05:32.393Z,100601.69
2022-10-30T04:10:36.667Z,100595.53
2022-10-30T04:15:44.572Z,100600.19
2022-10-30T04:20:48.259Z,100608.50
2022-10-30T04:25:52.797Z,100599.72
2022-10-30T04:30:55.545Z,100594.19
2022-10-30T04:35:58.329Z,100598.84
2022-10-30T04:41:02.576Z,100591.78
2022-10-30T04:46:21.070Z,100590.28
2022-10-30T04:51:24.303Z,100585.63
2022-10-30T04:56:28.846Z,100586.75
2022-10-30T05:01:31.697Z,100591.50
2022-10-30T05:06:34.856Z,100580.84
2022-10-30T05:11:39.302Z,100585.38
2022-10-30T05:16:42.443Z,100598.22
2022-10-30T05:21:45.302Z,100600.16
2022-10-30T05:26:51.277Z,100602.22
2022-10-30T05:31:53.978Z,100615.06
2022-10-30T05:37:11.587Z,100617.75
2022-10-30T05:42:15.856Z,100629.88
2022-10-30T05:47:20.888Z,100627.66
2022-10-30T05:52:29.148Z,100621.69
2022-10-30T05:57:34.265Z,100620.38
2022-10-30T06:02:37.391Z,100621.72
2022-10-30T06:07:40.198Z,100610.75
2022-10-30T06:12:44.500Z,100615.03
2022-10-30T06:18:10.433Z,100620.03
2022-10-30T06:23:25.100Z,100621.50
2022-10-30T06:28:37.598Z,100622.84
2022-10-30T06:33:40.577Z,100620.78
2022-10-30T06:38:45.100Z,100630.31
2022-10-30T06:43:52.703Z,100629.94
2022-10-30T06:48:58.397Z,100629.69
2022-10-30T06:54:02.279Z,100634.81
2022-10-30T06:59:38.142Z,100642.66
2022-10-30T07:04:58.559Z,100635.06
2022-10-30T07:10:01.582Z,100630.41
2022-10-30T07:15:24.119Z,100634.72
2022-10-30T07:20:36.559Z,100639.56
2022-10-30T07:25:39.943Z,100635.78
2022-10-30T07:30:56.645Z,100643.63
2022-10-30T07:36:34.904Z,100650.34
2022-10-30T07:41:40.331Z,100649.09
2022-10-30T07:47:10.315Z,100653.38
2022-10-30T07:52:39.245Z,100639.78
2022-10-30T07:57:43.640Z,100646.69
2022-10-30T08:03:06.398Z,100659.66
2022-10-30T08:08:13.923Z,100651.94
2022-10-30T08:13:18.305Z,100658.09
2022-10-30T08:18:22.860Z,100655.13
2022-10-30T08:23:32.371Z,100658.03
2022-10-30T08:28:41.113Z,100648.59
2022-10-30T08:33:47.498Z,100660.94
2022-10-30T08:39:03.955Z,100666.28
2022-10-30T08:44:25.178Z,100668.22
2022-10-30T08:49:47.690Z,100666.13
2022-10-30T08:54:54.304Z,100665.63
2022-10-30T08:59:59.278Z,100665.00
2022-10-30T09:05:28.850Z,100655.19
2022-10-30T09:10:55.487Z,100662.72
2022-10-30T09:16:00.661Z,100664.22
2022-10-30T09:21:06.943Z,100666.78
2022-10-30T09:26:20.994Z,100656.00
2022-10-30T09:31:36.063Z,100664.84
2022-10-30T09:36:43.833Z,100668.00
2022-10-30T09:42:18.974Z,100660.88
2022-10-30T09:47:30.001Z,100668.38
2022-10-30T09:52:35.952Z,100682.09
2022-10-30T09:57:42.845Z,100673.78
2022-10-30T10:02:54.769Z,100685.19
2022-10-30T10:08:02.030Z,100672.50
2022-10-30T10:13:30.108Z,100680.38
2022-10-30T10:18:34.397Z,100671.91
2022-10-30T10:23:42.656Z,100671.78
2022-10-30T10:28:51.477Z,100667.25
2022-10-30T10:34:00.706Z,100674.56
2022-10-30T10:39:16.628Z,100664.31
2022-10-30T10:44:26.235Z,100662.84
2022-10-30T10:49:40.022Z,100658.19
2022-10-30T10:54:45.740Z,100659.38
2022-10-30T10:59:49.882Z,100659.28
2022-10-30T11:04:53.747Z,100656.06
2022-10-30T11:09:58.315Z,100649.50
2022-10-30T11:15:14.590Z,100636.28
2022-10-30T11:20:18.442Z,100636.72
2022-10-30T11:25:26.879Z,100634.25
2022-10-30T11:30:33.108Z,100624.69
2022-10-30T11:35:36.444Z,100625.63
2022-10-30T11:40:41.327Z,100627.91
2022-10-30T11:45:43.927Z,100619.91
2022-10-30T11:50:46.754Z,100612.03
2022-10-30T11:55:50.733Z,100609.94
2022-10-30T12:01:00.958Z,100613.47
2022-10-30T12:06:08.726Z,100611.97
2022-10-30T12:11:12.740Z,100621.75
2022-10-30T12:16:16.678Z,100611.34
2022-10-30T12:21:19.829Z,100604.16
2022-10-30T12:26:23.790Z,100596.47
2022-10-30T12:31:30.160Z,100593.63
2022-10-30T12:36:36.050Z,100601.16
2022-10-30T12:41:43.281Z,100595.91
2022-10-30T12:46:48.732Z,100587.63
2022-10-30T12:51:53.943Z,100590.75
2022-10-30T12:57:01.825Z,100580.38
2022-10-30T13:02:13.260Z,100591.16
2022-10-30T13:07:18.951Z,100579.66
2022-10-30T13:12:23.933Z,100574.28
2022-10-30T13:17:28.518Z,100578.97
2022-10-30T13:22:33.851Z,100579.16
2022-10-30T13:27:41.820Z,100576.06
2022-10-30T13:32:52.629Z,100560.88
2022-10-30T13:37:58.307Z,100566.81
2022-10-30T13:43:12.802Z,100569.16
2022-10-30T13:48:19.627Z,100565.09
2022-10-30T13:53:24.280Z,100559.69
2022-10-30T13:58:31.212Z,100556.16
2022-10-30T14:03:46.749Z,100556.28
2022-10-30T14:08:52.624Z,100565.47
2022-10-30T14:13:57.370Z,100554.13
2022-10-30T14:19:00.772Z,100556.53
2022-10-30T14:24:04.765Z,100561.09
2022-10-30T14:29:38.385Z,100558.66
2022-10-30T14:34:41.976Z,100565.28
2022-10-30T14:39:45.058Z,100562.06
2022-10-30T14:45:02.090Z,100563.78
2022-10-30T14:50:11.743Z,100565.75
2022-10-30T14:55:34.584Z,100566.91
2022-10-30T15:00:43.072Z,100560.22
2022-10-30T15:05:49.812Z,100560.22
2022-10-30T15:10:58.862Z,100563.34
2022-10-30T15:16:04.062Z,100555.63
2022-10-30T15:21:08.046Z,100553.28
2022-10-30T15:26:21.243Z,100550.06
2022-10-30T15:31:25.961Z,100548.06
2022-10-30T15:36:30.702Z,100547.75
2022-10-30T15:41:33.621Z,100550.38
2022-10-30T15:46:37.824Z,100552.59
2022-10-30T15:51:40.579Z,100552.19
2022-10-30T15:57:08.347Z,100553.75
2022-10-30T16:02:20.869Z,100555.34
2022-10-30T16:07:24.482Z,100551.75
2022-10-30T16:12:27.342Z,100547.25
2022-10-30T16:17:31.356Z,100548.22
2022-10-30T16:22:35.673Z,100551.03
2022-10-30T16:27:44.155Z,100543.16
2022-10-30T16:32:52.168Z,100544.41
2022-10-30T16:37:55.193Z,100546.13
2022-10-30T16:42:59.101Z,100545.94
2022-10-30T16:48:09.166Z,100546.84
2022-10-30T16:53:17.986Z,100544.56
2022-10-30T16:58:20.766Z,100551.19
2022-10-30T17:03:26.495Z,100549.34
2022-10-30T17:08:37.452Z,100551.91
2022-10-30T17:13:42.790Z,100554.34
2022-10-30T17:18:47.093Z,100557.63
2022-10-30T17:23:50.686Z,100570.38
2022-10-30T17:28:53.453Z,100571.25
2022-10-30T17:34:17.884Z,100572.94
2022-10-30T17:39:20.742Z,100576.50
2022-10-30T17:44:23.980Z,100565.50
2022-10-30T17:49:29.458Z,100576.16
2022-10-30T17:54:32.179Z,100578.72
2022-10-30T17:59:37.056Z,100578.72
2022-10-30T18:04:42.169Z,100577.75
2022-10-30T18:09:45.128Z,100575.78
2022-10-30T18:14:47.811Z,100572.47
2022-10-30T18:19:51.951Z,100576.63
2022-10-30T18:24:54.832Z,100585.72
2022-10-30T18:29:57.709Z,100590.97
2022-10-30T18:35:01.907Z,100588.28
2022-10-30T18:40:05.290Z,100587.28
2022-10-30T18:45:23.730Z,100593.81
2022-10-30T18:50:28.053Z,100601.75
2022-10-30T18:55:34.144Z,100594.78
2022-10-30T19:00:58.189Z,100593.81
2022-10-30T19:06:03.432Z,100591.34
2022-10-30T19:11:06.376Z,100592.19
2022-10-30T19:16:11.456Z,100594.19
2022-10-30T19:21:16.961Z,100594.59
2022-10-30T19:26:19.658Z,100595.19
2022-10-30T19:31:22.364Z,100598.16
2022-10-30T19:36:31.150Z,100600.84
2022-10-30T19:41:33.798Z,100613.31
2022-10-30T19:46:36.899Z,100612.06
2022-10-30T19:51:40.990Z,100622.13
2022-10-30T19:56:44.124Z,100620.06
2022-10-30T20:01:46.935Z,100627.38
2022-10-30T20:06:51.211Z,100630.84
2022-10-30T20:11:53.797Z,100632.53
2022-10-30T20:16:56.447Z,100633.41
2022-10-30T20:22:00.488Z,100638.94
2022-10-30T20:27:03.164Z,100643.06
2022-10-30T20:32:06.570Z,100643.44
2022-10-30T20:37:11.104Z,100643.69
2022-10-30T20:42:13.794Z,100650.81
2022-10-30T20:47:16.417Z,100657.66
2022-10-30T20:52:20.463Z,100665.13
2022-10-30T20:57:23.216Z,100659.94
2022-10-30T21:02:26.074Z,100666.59
2022-10-30T21:07:31.442Z,100662.44
2022-10-30T21:12:36.345Z,100672.97
2022-10-30T21:17:39.003Z,100679.38
2022-10-30T21:22:43.151Z,100682.50
2022-10-30T21:32:53.446Z,100683.88
2022-10-30T21:37:57.435Z,100689.25
2022-10-30T21:43:03.227Z,100695.53
2022-10-30T21:48:07.758Z,100690.25
2022-10-30T21:53:11.860Z,100691.25
2022-10-30T21:58:14.517Z,100699.09
2022-10-30T22:03:17.241Z,100701.03
2022-10-30T22:08:21.413Z,100696.72
2022-10-30T22:13:24.145Z,100695.72
2022-10-30T22:18:26.838Z,100693.16
2022-10-30T22:23:30.890Z,100690.94
2022-10-30T22:28:33.943Z,100697.06
2022-10-30T22:33:36.671Z,100694.09
2022-10-30T22:38:40.640Z,100696.19
2022-10-30T22:43:44.056Z,100696.34
2022-10-30T22:48:46.731Z,100697.06
2022-10-30T22:53:57.036Z,100691.66
2022-10-30T22:59:01.460Z,100708.56
2022-10-30T23:04:04.542Z,100710.53
2022-10-30T23:09:10.057Z,100706.97
2022-10-30T23:14:12.712Z,100709.19
2022-10-30T23:19:15.390Z,100710.59
2022-10-30T23:24:19.375Z,100719.06
2022-10-30T23:29:21.991Z,100716.03
2022-10-30T23:34:24.630Z,100720.34
2022-10-30T23:39:29.298Z,100716.44
2022-10-30T23:44:31.903Z,100725.78
2022-10-30T23:49:34.592Z,100721.72
2022-10-30T23:54:38.640Z,100724.06
2022-10-30T23:59:41.279Z,100728.59
